createdAt,value
2018-06-11T00:00:57.750Z,19.47
2018-06-11T00:01:58.313Z,19.47
2018-06-11T00:02:58.855Z,19.49
2018-06-11T00:03:59.406Z,19.49
2018-06-11T00:04:59.956Z,19.51
2018-06-11T00:06:00.502Z,19.48
2018-06-11T00:07:01.051Z,19.43
2018-06-11T00:08:01.601Z,19.43
2018-06-11T00:09:02.154Z,19.39
2018-06-11T00:10:02.707Z,19.33
2018-06-11T00:11:03.256Z,19.37
2018-06-11T00:12:03.809Z,19.44
2018-06-11T00:13:04.358Z,19.44
2018-06-11T00:14:04.903Z,19.29
2018-06-11T00:15:05.453Z,19.33
2018-06-11T00:16:06.003Z,19.24
2018-06-11T00:17:06.557Z,19.33
2018-06-11T00:18:07.106Z,19.27
2018-06-11T00:19:07.657Z,19.27
2018-06-11T00:20:08.205Z,19.36
2018-06-11T00:21:08.757Z,19.14
2018-06-11T00:22:09.314Z,19.18
2018-06-11T00:23:09.863Z,19.16
2018-06-11T00:24:10.414Z,19.29
2018-06-11T00:25:10.965Z,19.15
2018-06-11T00:26:11.516Z,19.24
2018-06-11T00:27:12.067Z,19.16
2018-06-11T00:28:12.619Z,19.12
2018-06-11T00:29:13.173Z,19.15
2018-06-11T00:30:13.723Z,19.15
2018-06-11T00:31:14.268Z,19.09
2018-06-11T00:32:14.824Z,19.11
2018-06-11T00:33:15.374Z,19.06
2018-06-11T00:34:15.929Z,19.09
2018-06-11T00:35:16.478Z,19.12
2018-06-11T00:36:17.031Z,19.21
2018-06-11T00:37:17.584Z,19.16
2018-06-11T00:38:18.132Z,19.12
2018-06-11T00:39:18.682Z,19.11
2018-06-11T00:40:19.239Z,19.09
2018-06-11T00:41:19.785Z,19.15
2018-06-11T00:42:20.334Z,19.11
2018-06-11T00:43:20.885Z,19.06
2018-06-11T00:44:21.438Z,19.04
2018-06-11T00:45:21.983Z,19.02
2018-06-11T00:46:22.536Z,19.04
2018-06-11T00:47:23.287Z,19.00
2018-06-11T00:48:23.838Z,19.02
2018-06-11T00:49:24.385Z,18.93
2018-06-11T00:50:24.936Z,18.93
2018-06-11T00:51:25.486Z,18.95
2018-06-11T00:52:26.039Z,18.89
2018-06-11T00:53:26.585Z,18.96
2018-06-11T00:54:27.136Z,18.90
2018-06-11T00:55:27.688Z,18.96
2018-06-11T00:56:28.238Z,18.96
2018-06-11T00:57:28.793Z,18.93
2018-06-11T00:58:29.333Z,18.92
2018-06-11T00:59:29.882Z,18.87
2018-06-11T01:00:30.433Z,18.85
2018-06-11T01:01:30.981Z,18.85
2018-06-11T01:02:31.534Z,18.84
2018-06-11T01:03:32.084Z,18.89
2018-06-11T01:04:32.637Z,18.89
2018-06-11T01:05:33.189Z,18.81
2018-06-11T01:06:33.744Z,18.71
2018-06-11T01:07:34.288Z,18.73
2018-06-11T01:08:34.839Z,18.68
2018-06-11T01:09:35.388Z,18.74
2018-06-11T01:10:35.940Z,18.62
2018-06-11T01:11:36.492Z,18.63
2018-06-11T01:12:37.038Z,18.59
2018-06-11T01:13:37.592Z,18.63
2018-06-11T01:14:38.139Z,18.65
2018-06-11T01:15:38.689Z,18.50
2018-06-11T01:16:39.243Z,18.55
2018-06-11T01:17:39.793Z,18.51
2018-06-11T01:18:40.343Z,18.48
2018-06-11T01:19:40.891Z,18.44
2018-06-11T01:20:41.440Z,18.47
2018-06-11T01:21:41.987Z,18.48
2018-06-11T01:22:42.526Z,18.41
2018-06-11T01:23:43.067Z,18.41
2018-06-11T01:24:43.618Z,18.41
2018-06-11T01:25:44.170Z,18.34
2018-06-11T01:26:44.720Z,18.35
2018-06-11T01:27:45.266Z,18.32
2018-06-11T01:28:45.820Z,18.38
2018-06-11T01:29:46.369Z,18.37
2018-06-11T01:30:46.924Z,18.40
2018-06-11T01:31:47.466Z,18.35
2018-06-11T01:32:48.021Z,18.37
2018-06-11T01:33:48.573Z,18.35
2018-06-11T01:34:49.127Z,18.35
2018-06-11T01:35:49.679Z,18.34
2018-06-11T01:36:50.228Z,18.40
2018-06-11T01:37:50.777Z,18.32
2018-06-11T01:38:51.326Z,18.35
2018-06-11T01:39:51.878Z,18.34
2018-06-11T01:40:52.428Z,18.19
2018-06-11T01:41:52.975Z,18.30
2018-06-11T01:42:53.525Z,18.23
2018-06-11T01:43:54.076Z,18.25
2018-06-11T01:44:54.629Z,18.29
2018-06-11T01:45:55.181Z,18.27
2018-06-11T01:46:55.729Z,18.19
2018-06-11T01:47:56.281Z,18.23
2018-06-11T01:48:56.832Z,18.16
2018-06-11T01:49:57.387Z,18.14
2018-06-11T01:50:57.938Z,18.14
2018-06-11T01:51:58.484Z,18.14
2018-06-11T01:52:59.036Z,18.23
2018-06-11T01:53:59.586Z,18.23
2018-06-11T01:55:00.141Z,18.19
2018-06-11T01:56:00.690Z,18.22
2018-06-11T01:57:01.237Z,18.22
2018-06-11T01:58:01.789Z,18.25
2018-06-11T01:59:02.341Z,18.16
2018-06-11T02:00:02.892Z,18.18
2018-06-11T02:01:03.442Z,18.07
2018-06-11T02:02:03.994Z,18.11
2018-06-11T02:03:04.545Z,18.12
2018-06-11T02:04:05.095Z,18.10
2018-06-11T02:05:05.644Z,18.00
2018-06-11T02:06:06.191Z,17.97
2018-06-11T02:07:06.745Z,18.00
2018-06-11T02:08:07.296Z,18.01
2018-06-11T02:09:07.854Z,18.00
2018-06-11T02:10:08.403Z,18.01
2018-06-11T02:11:08.947Z,17.97
2018-06-11T02:12:09.505Z,17.90
2018-06-11T02:13:10.051Z,17.83
2018-06-11T02:14:10.604Z,17.74
2018-06-11T02:15:11.151Z,17.82
2018-06-11T02:16:11.701Z,17.82
2018-06-11T02:17:12.252Z,17.77
2018-06-11T02:18:12.796Z,17.70
2018-06-11T02:19:13.342Z,17.75
2018-06-11T02:20:13.894Z,17.72
2018-06-11T02:21:14.444Z,17.70
2018-06-11T02:22:14.991Z,17.59
2018-06-11T02:23:15.540Z,17.60
2018-06-11T02:24:16.084Z,17.59
2018-06-11T02:25:16.634Z,17.56
2018-06-11T02:26:17.191Z,17.59
2018-06-11T02:27:17.740Z,17.59
2018-06-11T02:28:18.288Z,17.63
2018-06-11T02:29:18.842Z,17.60
2018-06-11T02:30:19.397Z,17.55
2018-06-11T02:31:19.945Z,17.60
2018-06-11T02:32:20.499Z,17.59
2018-06-11T02:33:21.056Z,17.46
2018-06-11T02:34:21.609Z,17.51
2018-06-11T02:35:22.151Z,17.63
2018-06-11T02:36:22.700Z,17.51
2018-06-11T02:37:23.251Z,17.56
2018-06-11T02:38:23.798Z,17.51
2018-06-11T02:39:24.348Z,17.48
2018-06-11T02:40:24.898Z,17.44
2018-06-11T02:41:25.455Z,17.49
2018-06-11T02:42:25.997Z,17.52
2018-06-11T02:43:26.541Z,17.46
2018-06-11T02:44:27.093Z,17.48
2018-06-11T02:45:27.645Z,17.45
2018-06-11T02:46:28.190Z,17.42
2018-06-11T02:47:28.744Z,17.49
2018-06-11T02:48:29.298Z,17.39
2018-06-11T02:49:29.844Z,17.48
2018-06-11T02:50:30.386Z,17.41
2018-06-11T02:51:30.936Z,17.42
2018-06-11T02:52:31.486Z,17.41
2018-06-11T02:53:32.037Z,17.41
2018-06-11T02:54:32.590Z,17.39
2018-06-11T02:55:33.137Z,17.39
2018-06-11T02:56:33.688Z,17.37
2018-06-11T02:57:34.239Z,17.33
2018-06-11T02:58:34.791Z,17.34
2018-06-11T02:59:35.338Z,17.34
2018-06-11T03:00:35.884Z,17.31
2018-06-11T03:01:36.436Z,17.27
2018-06-11T03:02:36.983Z,17.18
2018-06-11T03:03:37.537Z,17.26
2018-06-11T03:04:38.082Z,17.23
2018-06-11T03:05:38.639Z,17.33
2018-06-11T03:06:39.187Z,17.31
2018-06-11T03:07:39.744Z,17.29
2018-06-11T03:08:40.292Z,17.26
2018-06-11T03:09:40.842Z,17.23
2018-06-11T03:10:41.393Z,17.21
2018-06-11T03:11:41.946Z,17.26
2018-06-11T03:12:42.498Z,17.29
2018-06-11T03:13:43.053Z,17.21
2018-06-11T03:14:43.603Z,17.19
2018-06-11T03:15:44.161Z,17.18
2018-06-11T03:16:44.711Z,17.21
2018-06-11T03:17:45.269Z,17.23
2018-06-11T03:18:45.825Z,17.36
2018-06-11T03:19:46.377Z,17.31
2018-06-11T03:20:46.927Z,17.37
2018-06-11T03:21:47.479Z,17.27
2018-06-11T03:22:48.034Z,17.24
2018-06-11T03:23:48.587Z,17.30
2018-06-11T03:24:49.137Z,17.19
2018-06-11T03:25:49.686Z,17.33
2018-06-11T03:26:50.239Z,17.31
2018-06-11T03:27:50.792Z,17.27
2018-06-11T03:28:51.345Z,17.26
2018-06-11T03:29:51.898Z,17.31
2018-06-11T03:30:52.446Z,17.15
2018-06-11T03:31:52.999Z,17.18
2018-06-11T03:32:53.548Z,17.14
2018-06-11T03:33:54.105Z,17.14
2018-06-11T03:34:54.659Z,17.14
2018-06-11T03:35:55.214Z,17.15
2018-06-11T03:36:55.765Z,17.11
2018-06-11T03:37:56.316Z,17.12
2018-06-11T03:38:56.867Z,17.05
2018-06-11T03:39:57.421Z,17.12
2018-06-11T03:40:57.977Z,17.08
2018-06-11T03:41:58.535Z,17.04
2018-06-11T03:42:59.091Z,17.11
2018-06-11T03:43:59.646Z,17.12
2018-06-11T03:45:00.204Z,17.15
2018-06-11T03:46:00.754Z,17.16
2018-06-11T03:47:01.309Z,17.14
2018-06-11T03:48:01.858Z,17.18
2018-06-11T03:49:02.411Z,17.14
2018-06-11T03:50:02.965Z,17.16
2018-06-11T03:51:03.520Z,17.21
2018-06-11T03:52:04.082Z,17.15
2018-06-11T03:53:04.642Z,17.12
2018-06-11T03:54:05.210Z,17.16
2018-06-11T03:55:05.769Z,17.18
2018-06-11T03:56:06.337Z,17.21
2018-06-11T03:57:06.887Z,17.14
2018-06-11T03:58:07.451Z,17.18
2018-06-11T03:59:08.012Z,17.19
2018-06-11T04:00:08.565Z,17.21
2018-06-11T04:01:09.118Z,17.23
2018-06-11T04:02:09.677Z,17.21
2018-06-11T04:03:10.236Z,17.16
2018-06-11T04:04:10.800Z,17.18
2018-06-11T04:05:11.361Z,17.19
2018-06-11T04:06:11.917Z,17.19
2018-06-11T04:07:12.479Z,17.21
2018-06-11T04:08:13.041Z,17.24
2018-06-11T04:09:13.600Z,17.24
2018-06-11T04:10:14.157Z,17.26
2018-06-11T04:11:14.759Z,17.37
2018-06-11T04:12:15.271Z,17.34
2018-06-11T04:13:15.835Z,17.37
2018-06-11T04:14:16.400Z,17.44
2018-06-11T04:15:16.967Z,17.48
2018-06-11T04:16:17.530Z,17.46
2018-06-11T04:17:18.093Z,17.55
2018-06-11T04:18:18.656Z,17.51
2018-06-11T04:19:19.209Z,17.41
2018-06-11T04:20:19.766Z,17.51
2018-06-11T04:21:20.333Z,17.48
2018-06-11T04:22:20.892Z,17.46
2018-06-11T04:23:21.448Z,17.51
2018-06-11T04:24:22.013Z,17.59
2018-06-11T04:25:22.577Z,17.64
2018-06-11T04:26:23.134Z,17.64
2018-06-11T04:27:23.696Z,17.72
2018-06-11T04:28:24.263Z,17.74
2018-06-11T04:29:24.821Z,17.55
2018-06-11T04:30:25.374Z,17.55
2018-06-11T04:31:25.930Z,17.60
2018-06-11T04:32:26.483Z,17.67
2018-06-11T04:33:27.040Z,17.52
2018-06-11T04:34:27.597Z,17.75
2018-06-11T04:35:28.148Z,17.77
2018-06-11T04:36:28.710Z,17.80
2018-06-11T04:37:29.275Z,17.86
2018-06-11T04:38:29.837Z,17.83
2018-06-11T04:39:30.402Z,17.82
2018-06-11T04:40:30.968Z,17.87
2018-06-11T04:41:31.530Z,17.87
2018-06-11T04:42:32.086Z,17.92
2018-06-11T04:43:32.644Z,17.82
2018-06-11T04:44:33.198Z,17.92
2018-06-11T04:45:33.756Z,18.00
2018-06-11T04:46:34.315Z,18.00
2018-06-11T04:47:34.870Z,18.07
2018-06-11T04:48:35.422Z,18.08
2018-06-11T04:49:35.983Z,18.11
2018-06-11T04:50:36.545Z,18.18
2018-06-11T04:51:37.110Z,18.10
2018-06-11T04:52:37.672Z,18.22
2018-06-11T04:53:38.225Z,18.34
2018-06-11T04:54:38.777Z,18.35
2018-06-11T04:55:39.335Z,18.32
2018-06-11T04:56:39.890Z,18.14
2018-06-11T04:57:40.447Z,18.20
2018-06-11T04:58:41.000Z,18.26
2018-06-11T04:59:41.556Z,18.22
2018-06-11T05:00:42.109Z,18.20
2018-06-11T05:01:42.666Z,18.32
2018-06-11T05:02:43.224Z,18.26
2018-06-11T05:03:43.777Z,18.27
2018-06-11T05:04:44.332Z,18.12
2018-06-11T05:05:44.888Z,18.11
2018-06-11T05:06:45.445Z,18.11
2018-06-11T05:07:46.002Z,18.14
2018-06-11T05:08:46.556Z,17.97
2018-06-11T05:09:47.115Z,17.97
2018-06-11T05:10:47.677Z,18.00
2018-06-11T05:11:48.233Z,17.97
2018-06-11T05:12:48.791Z,18.03
2018-06-11T05:13:49.345Z,18.14
2018-06-11T05:14:49.902Z,18.16
2018-06-11T05:15:50.450Z,18.27
2018-06-11T05:16:51.003Z,18.37
2018-06-11T05:17:51.561Z,18.35
2018-06-11T05:18:52.116Z,18.38
2018-06-11T05:19:52.675Z,18.32
2018-06-11T05:20:53.233Z,18.35
2018-06-11T05:21:53.791Z,18.44
2018-06-11T05:22:54.348Z,18.47
2018-06-11T05:23:54.902Z,18.53
2018-06-11T05:24:55.458Z,18.55
2018-06-11T05:25:56.014Z,18.48
2018-06-11T05:26:56.567Z,18.55
2018-06-11T05:27:57.121Z,18.65
2018-06-11T05:28:57.682Z,18.53
2018-06-11T05:29:58.238Z,18.56
2018-06-11T05:30:58.796Z,18.65
2018-06-11T05:31:59.358Z,18.69
2018-06-11T05:32:59.921Z,18.87
2018-06-11T05:34:00.473Z,18.95
2018-06-11T05:35:01.032Z,18.98
2018-06-11T05:36:01.587Z,19.06
2018-06-11T05:37:02.146Z,19.14
2018-06-11T05:38:02.784Z,19.12
2018-06-11T05:39:03.311Z,19.15
2018-06-11T05:40:03.871Z,19.29
2018-06-11T05:41:04.429Z,19.33
2018-06-11T05:42:04.989Z,19.24
2018-06-11T05:43:05.543Z,19.29
2018-06-11T05:44:06.103Z,19.27
2018-06-11T05:45:06.665Z,19.30
2018-06-11T05:46:07.225Z,19.29
2018-06-11T05:47:07.780Z,19.27
2018-06-11T05:48:08.337Z,19.41
2018-06-11T05:49:08.887Z,19.33
2018-06-11T05:50:09.443Z,19.40
2018-06-11T05:51:10.004Z,19.31
2018-06-11T05:52:10.565Z,19.49
2018-06-11T05:53:11.129Z,19.66
2018-06-11T05:54:11.689Z,19.69
2018-06-11T05:55:12.254Z,19.80
2018-06-11T05:56:12.815Z,20.14
2018-06-11T05:57:13.379Z,20.29
2018-06-11T05:58:13.938Z,20.59
2018-06-11T05:59:14.494Z,20.78
2018-06-11T06:00:15.060Z,20.78
2018-06-11T06:01:15.625Z,20.78
2018-06-11T06:02:16.186Z,20.57
2018-06-11T06:03:16.745Z,20.51
2018-06-11T06:04:17.309Z,20.78
2018-06-11T06:05:17.873Z,20.95
2018-06-11T06:06:18.433Z,21.18
2018-06-11T06:07:18.996Z,21.20
2018-06-11T06:08:19.560Z,21.03
2018-06-11T06:09:20.137Z,20.99
2018-06-11T06:10:20.689Z,20.96
2018-06-11T06:11:21.253Z,20.88
2018-06-11T06:12:21.816Z,20.75
2018-06-11T06:13:22.382Z,20.80
2018-06-11T06:14:22.938Z,20.77
2018-06-11T06:15:23.503Z,20.66
2018-06-11T06:16:24.069Z,20.81
2018-06-11T06:17:24.638Z,20.81
2018-06-11T06:18:25.201Z,20.77
2018-06-11T06:19:25.759Z,20.78
2018-06-11T06:20:26.322Z,20.92
2018-06-11T06:21:26.885Z,20.92
2018-06-11T06:22:27.451Z,21.35
2018-06-11T06:23:28.014Z,21.60
2018-06-11T06:24:28.583Z,21.95
2018-06-11T06:25:29.145Z,22.20
2018-06-11T06:26:29.710Z,22.05
2018-06-11T06:27:30.283Z,21.73
2018-06-11T06:28:30.844Z,21.65
2018-06-11T06:29:31.407Z,21.46
2018-06-11T06:30:31.974Z,21.70
2018-06-11T06:31:32.540Z,21.65
2018-06-11T06:32:33.105Z,21.75
2018-06-11T06:33:33.671Z,21.96
2018-06-11T06:34:34.330Z,22.11
2018-06-11T06:35:34.792Z,22.53
2018-06-11T06:36:35.362Z,23.02
2018-06-11T06:37:35.927Z,23.28
2018-06-11T06:38:36.489Z,23.41
2018-06-11T06:39:37.074Z,23.24
2018-06-11T06:40:37.638Z,23.15
2018-06-11T06:41:38.197Z,23.12
2018-06-11T06:42:38.755Z,23.15
2018-06-11T06:43:39.325Z,23.24
2018-06-11T06:44:39.892Z,23.34
2018-06-11T06:45:40.453Z,23.46
2018-06-11T06:46:41.018Z,23.64
2018-06-11T06:47:41.588Z,24.13
2018-06-11T06:48:42.154Z,24.20
2018-06-11T06:49:42.724Z,24.03
2018-06-11T06:50:43.290Z,23.95
2018-06-11T06:51:43.859Z,23.99
2018-06-11T06:52:44.427Z,23.84
2018-06-11T06:53:44.993Z,23.53
2018-06-11T06:54:45.549Z,23.50
2018-06-11T06:55:46.110Z,23.23
2018-06-11T06:56:46.678Z,23.09
2018-06-11T06:57:47.245Z,23.15
2018-06-11T06:58:47.812Z,23.16
2018-06-11T06:59:48.373Z,23.31
2018-06-11T07:00:48.940Z,23.12
2018-06-11T07:01:49.563Z,22.93
2018-06-11T07:02:50.068Z,22.91
2018-06-11T07:03:50.635Z,23.03
2018-06-11T07:04:51.205Z,23.27
2018-06-11T07:05:51.772Z,23.69
2018-06-11T07:06:52.345Z,23.87
2018-06-11T07:07:52.911Z,24.14
2018-06-11T07:08:53.481Z,24.08
2018-06-11T07:09:54.051Z,24.21
2018-06-11T07:10:54.617Z,24.58
2018-06-11T07:11:55.189Z,24.92
2018-06-11T07:12:55.749Z,24.98
2018-06-11T07:13:56.318Z,25.28
2018-06-11T07:14:56.890Z,25.51
2018-06-11T07:15:57.460Z,25.51
2018-06-11T07:16:58.033Z,25.39
2018-06-11T07:17:58.600Z,25.36
2018-06-11T07:18:59.171Z,25.39
2018-06-11T07:19:59.741Z,25.33
2018-06-11T07:21:00.310Z,24.80
2018-06-11T07:22:00.875Z,24.56
2018-06-11T07:23:01.443Z,24.58
2018-06-11T07:24:02.004Z,24.48
2018-06-11T07:25:02.573Z,24.01
2018-06-11T07:26:03.143Z,23.98
2018-06-11T07:27:03.769Z,24.14
2018-06-11T07:28:04.283Z,24.28
2018-06-11T07:29:04.848Z,24.23
2018-06-11T07:30:05.416Z,24.14
2018-06-11T07:31:05.984Z,24.06
2018-06-11T07:32:06.547Z,23.95
2018-06-11T07:33:07.115Z,23.79
2018-06-11T07:34:07.678Z,23.95
2018-06-11T07:35:08.252Z,24.18
2018-06-11T07:36:08.816Z,24.14
2018-06-11T07:37:09.384Z,24.45
2018-06-11T07:38:09.948Z,24.96
2018-06-11T07:39:10.515Z,24.95
2018-06-11T07:40:11.083Z,25.16
2018-06-11T07:41:11.646Z,25.44
2018-06-11T07:42:12.210Z,25.31
2018-06-11T07:43:12.773Z,25.46
2018-06-11T07:44:13.339Z,25.50
2018-06-11T07:45:13.940Z,25.47
2018-06-11T07:46:14.477Z,25.39
2018-06-11T07:47:15.043Z,25.81
2018-06-11T07:48:15.613Z,26.24
2018-06-11T07:49:16.179Z,26.50
2018-06-11T07:50:16.750Z,26.47
2018-06-11T07:51:17.323Z,26.83
2018-06-11T07:52:17.897Z,26.76
2018-06-11T07:53:18.463Z,26.40
2018-06-11T07:54:19.040Z,26.21
2018-06-11T07:55:19.604Z,25.94
2018-06-11T07:56:20.170Z,25.94
2018-06-11T07:57:20.741Z,26.18
2018-06-11T07:58:21.317Z,26.16
2018-06-11T07:59:21.883Z,26.05
2018-06-11T08:00:22.456Z,25.90
2018-06-11T08:01:23.030Z,26.37
2018-06-11T08:02:23.591Z,26.40
2018-06-11T08:03:24.164Z,26.65
2018-06-11T08:04:24.734Z,26.74
2018-06-11T08:05:25.306Z,26.68
2018-06-11T08:06:25.886Z,26.28
2018-06-11T08:07:26.495Z,26.18
2018-06-11T08:08:27.025Z,26.85
2018-06-11T08:09:27.600Z,27.05
2018-06-11T08:10:28.172Z,26.88
2018-06-11T08:11:28.743Z,26.92
2018-06-11T08:12:29.314Z,26.34
2018-06-11T08:13:29.967Z,25.87
2018-06-11T08:14:30.449Z,25.54
2018-06-11T08:15:31.019Z,25.47
2018-06-11T08:16:31.591Z,25.29
2018-06-11T08:17:32.158Z,25.14
2018-06-11T08:18:32.732Z,25.10
2018-06-11T08:19:33.301Z,24.94
2018-06-11T08:20:33.867Z,24.74
2018-06-11T08:21:34.436Z,24.39
2018-06-11T08:22:35.003Z,24.28
2018-06-11T08:23:35.572Z,24.33
2018-06-11T08:24:36.138Z,24.42
2018-06-11T08:25:36.707Z,24.41
2018-06-11T08:26:37.276Z,24.43
2018-06-11T08:27:37.856Z,24.64
2018-06-11T08:28:38.414Z,24.94
2018-06-11T08:29:38.979Z,25.04
2018-06-11T08:30:39.549Z,25.33
2018-06-11T08:31:40.116Z,25.53
2018-06-11T08:32:40.683Z,25.53
2018-06-11T08:33:41.253Z,25.25
2018-06-11T08:34:41.816Z,25.78
2018-06-11T08:35:42.383Z,25.98
2018-06-11T08:36:42.953Z,26.21
2018-06-11T08:37:43.522Z,26.24
2018-06-11T08:38:44.086Z,26.13
2018-06-11T08:39:44.653Z,26.26
2018-06-11T08:40:45.218Z,26.44
2018-06-11T08:41:45.793Z,26.66
2018-06-11T08:42:46.365Z,26.66
2018-06-11T08:43:46.932Z,26.39
2018-06-11T08:44:47.496Z,26.03
2018-06-11T08:45:48.068Z,25.88
2018-06-11T08:46:48.633Z,25.94
2018-06-11T08:47:49.200Z,26.26
2018-06-11T08:48:49.768Z,26.43
2018-06-11T08:49:50.337Z,26.51
2018-06-11T08:50:50.908Z,26.41
2018-06-11T08:51:51.480Z,26.40
2018-06-11T08:52:52.052Z,26.22
2018-06-11T08:53:52.639Z,25.87
2018-06-11T08:54:53.207Z,25.80
2018-06-11T08:55:53.788Z,25.58
2018-06-11T08:56:54.351Z,25.51
2018-06-11T08:57:54.923Z,25.75
2018-06-11T08:58:55.489Z,25.72
2018-06-11T08:59:56.107Z,25.69
2018-06-11T09:00:56.622Z,25.68
2018-06-11T09:01:57.188Z,25.62
2018-06-11T09:02:57.749Z,25.46
2018-06-11T09:03:58.322Z,25.50
2018-06-11T09:04:58.884Z,25.33
2018-06-11T09:05:59.446Z,25.07
2018-06-11T09:07:00.017Z,24.80
2018-06-11T09:08:00.582Z,24.89
2018-06-11T09:09:01.151Z,24.96
2018-06-11T09:10:01.720Z,24.99
2018-06-11T09:11:02.290Z,25.02
2018-06-11T09:12:02.853Z,25.17
2018-06-11T09:13:03.421Z,25.07
2018-06-11T09:14:03.995Z,24.99
2018-06-11T09:15:04.552Z,24.98
2018-06-11T09:16:05.122Z,25.04
2018-06-11T09:17:05.689Z,25.07
2018-06-11T09:18:06.266Z,25.01
2018-06-11T09:19:06.824Z,25.06
2018-06-11T09:20:07.394Z,24.96
2018-06-11T09:21:07.963Z,25.18
2018-06-11T09:22:08.537Z,25.46
2018-06-11T09:23:09.103Z,25.61
2018-06-11T09:24:09.684Z,25.98
2018-06-11T09:25:10.276Z,26.25
2018-06-11T09:26:10.850Z,26.41
2018-06-11T09:27:11.435Z,26.51
2018-06-11T09:28:12.024Z,26.41
2018-06-11T09:29:12.609Z,26.50
2018-06-11T09:30:13.177Z,26.43
2018-06-11T09:31:13.748Z,26.69
2018-06-11T09:32:14.312Z,26.78
2018-06-11T09:33:14.881Z,27.03
2018-06-11T09:34:15.452Z,26.99
2018-06-11T09:35:16.024Z,27.06
2018-06-11T09:36:16.593Z,27.02
2018-06-11T09:37:17.167Z,26.96
2018-06-11T09:38:17.822Z,27.13
2018-06-11T09:39:18.312Z,27.00
2018-06-11T09:40:18.886Z,26.84
2018-06-11T09:41:19.464Z,26.85
2018-06-11T09:42:20.042Z,27.11
2018-06-11T09:43:20.622Z,27.43
2018-06-11T09:44:21.198Z,27.67
2018-06-11T09:45:21.764Z,27.70
2018-06-11T09:46:22.451Z,27.96
2018-06-11T09:47:23.041Z,28.08
2018-06-11T09:48:23.602Z,28.40
2018-06-11T09:49:24.175Z,28.57
2018-06-11T09:50:24.752Z,28.29
2018-06-11T09:51:25.342Z,27.92
2018-06-11T09:52:25.917Z,27.59
2018-06-11T09:53:26.485Z,27.70
2018-06-11T09:54:27.051Z,27.99
2018-06-11T09:55:27.625Z,28.25
2018-06-11T09:56:28.192Z,28.41
2018-06-11T09:57:28.768Z,28.36
2018-06-11T09:58:29.349Z,28.38
2018-06-11T09:59:29.923Z,28.23
2018-06-11T10:00:30.502Z,27.80
2018-06-11T10:01:31.075Z,27.59
2018-06-11T10:02:31.666Z,27.43
2018-06-11T10:03:32.233Z,27.36
2018-06-11T10:04:32.815Z,27.81
2018-06-11T10:05:33.398Z,28.25
2018-06-11T10:06:33.972Z,28.11
2018-06-11T10:07:34.544Z,28.35
2018-06-11T10:08:35.117Z,28.51
2018-06-11T10:09:35.685Z,28.75
2018-06-11T10:10:36.263Z,28.66
2018-06-11T10:11:36.835Z,28.79
2018-06-11T10:12:37.409Z,28.94
2018-06-11T10:13:38.004Z,29.04
2018-06-11T10:14:38.562Z,28.96
2018-06-11T10:15:39.141Z,28.84
2018-06-11T10:16:39.708Z,28.84
2018-06-11T10:17:40.277Z,29.10
2018-06-11T10:18:40.856Z,28.89
2018-06-11T10:19:41.475Z,29.13
2018-06-11T10:20:42.047Z,29.25
2018-06-11T10:21:42.622Z,29.10
2018-06-11T10:22:43.190Z,28.25
2018-06-11T10:23:43.758Z,28.04
2018-06-11T10:24:44.328Z,28.25
2018-06-11T10:25:44.916Z,28.08
2018-06-11T10:26:45.512Z,27.77
2018-06-11T10:27:46.082Z,27.88
2018-06-11T10:28:46.647Z,28.04
2018-06-11T10:29:47.214Z,27.96
2018-06-11T10:30:47.795Z,27.96
2018-06-11T10:31:48.395Z,27.83
2018-06-11T10:32:48.977Z,27.92
2018-06-11T10:33:49.542Z,28.10
2018-06-11T10:34:50.125Z,27.98
2018-06-11T10:35:50.703Z,27.90
2018-06-11T10:36:51.288Z,28.29
2018-06-11T10:37:51.862Z,28.23
2018-06-11T10:38:52.459Z,28.26
2018-06-11T10:39:53.176Z,28.22
2018-06-11T10:40:53.756Z,28.23
2018-06-11T10:41:54.333Z,27.96
2018-06-11T10:42:54.905Z,28.25
2018-06-11T10:43:55.482Z,28.14
2018-06-11T10:44:56.054Z,28.13
2018-06-11T10:45:56.666Z,28.17
2018-06-11T10:46:57.256Z,28.22
2018-06-11T10:47:57.864Z,28.10
2018-06-11T10:48:58.473Z,27.98
2018-06-11T10:49:59.087Z,27.63
2018-06-11T10:50:59.701Z,27.70
2018-06-11T10:52:00.295Z,27.96
2018-06-11T10:53:00.878Z,27.99
2018-06-11T10:54:01.461Z,28.08
2018-06-11T10:55:02.039Z,28.08
2018-06-11T10:56:02.614Z,28.27
2018-06-11T10:57:03.189Z,28.52
2018-06-11T10:58:03.766Z,28.35
2018-06-11T10:59:04.333Z,28.27
2018-06-11T11:00:04.909Z,28.00
2018-06-11T11:01:05.486Z,27.85
2018-06-11T11:02:06.052Z,28.14
2018-06-11T11:03:06.638Z,28.59
2018-06-11T11:04:07.239Z,28.92
2018-06-11T11:05:07.838Z,28.81
2018-06-11T11:06:08.410Z,28.85
2018-06-11T11:07:08.978Z,29.10
2018-06-11T11:08:09.562Z,29.25
2018-06-11T11:09:10.132Z,29.66
2018-06-11T11:10:10.709Z,29.91
2018-06-11T11:12:26.736Z,29.48
2018-06-11T11:13:27.306Z,29.50
2018-06-11T11:14:27.912Z,29.57
2018-06-11T11:15:28.440Z,29.52
2018-06-11T11:16:29.016Z,29.17
2018-06-11T11:17:29.592Z,28.96
2018-06-11T11:18:30.179Z,29.13
2018-06-11T11:19:30.747Z,29.01
2018-06-11T11:20:31.319Z,29.07
2018-06-11T11:21:31.892Z,29.17
2018-06-11T11:22:32.467Z,29.19
2018-06-11T11:23:33.044Z,29.20
2018-06-11T11:24:33.611Z,29.19
2018-06-11T11:25:34.191Z,29.30
2018-06-11T11:26:34.768Z,29.35
2018-06-11T11:27:35.351Z,29.56
2018-06-11T11:28:35.930Z,29.41
2018-06-11T11:29:36.507Z,29.56
2018-06-11T11:30:37.073Z,29.78
2018-06-11T11:31:37.673Z,30.08
2018-06-11T11:32:38.231Z,30.03
2018-06-11T11:33:38.827Z,30.03
2018-06-11T11:34:39.383Z,30.19
2018-06-11T11:35:39.955Z,30.26
2018-06-11T11:36:40.532Z,29.97
2018-06-11T11:37:41.109Z,30.16
2018-06-11T11:38:41.695Z,29.94
2018-06-11T11:39:42.264Z,29.47
2018-06-11T11:40:42.836Z,29.60
2018-06-11T11:41:43.408Z,29.69
2018-06-11T11:42:43.980Z,29.89
2018-06-11T11:43:44.559Z,29.66
2018-06-11T11:44:45.134Z,29.64
2018-06-11T11:45:45.705Z,29.27
2018-06-11T11:46:46.270Z,28.97
2018-06-11T11:47:46.845Z,29.13
2018-06-11T11:48:47.426Z,29.30
2018-06-11T11:49:48.005Z,29.56
2018-06-11T11:50:48.579Z,29.48
2018-06-11T11:51:49.156Z,29.26
2018-06-11T11:52:49.744Z,29.42
2018-06-11T11:53:50.315Z,29.76
2018-06-11T11:54:50.888Z,30.09
2018-06-11T11:55:51.479Z,30.11
2018-06-11T11:56:52.053Z,30.51
2018-06-11T11:57:52.630Z,31.02
2018-06-11T11:58:53.212Z,31.08
2018-06-11T11:59:53.791Z,30.91
2018-06-11T12:00:54.358Z,30.72
2018-06-11T12:01:54.934Z,30.38
2018-06-11T12:02:55.503Z,30.28
2018-06-11T12:03:56.082Z,30.13
2018-06-11T12:04:56.662Z,29.99
2018-06-11T12:05:57.295Z,30.01
2018-06-11T12:06:57.923Z,29.84
2018-06-11T12:07:58.533Z,29.56
2018-06-11T12:08:59.161Z,29.38
2018-06-11T12:09:59.744Z,29.54
2018-06-11T12:11:00.403Z,29.25
2018-06-11T12:12:01.068Z,29.25
2018-06-11T12:13:01.785Z,29.22
2018-06-11T12:14:02.473Z,29.08
2018-06-11T12:15:03.086Z,29.17
2018-06-11T12:16:03.747Z,29.53
2018-06-11T12:17:04.391Z,29.35
2018-06-11T12:18:05.019Z,29.38
2018-06-11T12:19:05.719Z,29.53
2018-06-11T12:20:06.292Z,29.52
2018-06-11T12:21:06.921Z,29.97
2018-06-11T12:22:07.526Z,30.19
2018-06-11T12:23:08.158Z,30.38
2018-06-11T12:24:08.777Z,30.60
2018-06-11T12:25:09.425Z,30.34
2018-06-11T12:26:09.949Z,30.33
2018-06-11T12:27:10.536Z,30.34
2018-06-11T12:28:11.115Z,30.16
2018-06-11T12:29:11.682Z,30.06
2018-06-11T12:30:12.258Z,29.96
2018-06-11T12:31:12.833Z,30.11
2018-06-11T12:32:13.408Z,30.03
2018-06-11T12:33:14.040Z,30.05
2018-06-11T12:34:14.586Z,30.22
2018-06-11T12:35:15.150Z,30.24
2018-06-11T12:36:15.749Z,30.38
2018-06-11T12:37:16.334Z,30.56
2018-06-11T12:38:16.910Z,30.72
2018-06-11T12:39:17.487Z,30.69
2018-06-11T12:40:18.067Z,30.68
2018-06-11T12:41:18.653Z,30.35
2018-06-11T12:42:19.253Z,29.72
2018-06-11T12:43:19.833Z,30.08
2018-06-11T12:44:20.404Z,30.16
2018-06-11T12:45:20.979Z,29.53
2018-06-11T12:46:21.553Z,29.48
2018-06-11T12:47:22.142Z,29.42
2018-06-11T12:48:22.732Z,29.25
2018-06-11T12:49:23.311Z,29.25
2018-06-11T12:50:23.899Z,29.37
2018-06-11T12:51:24.487Z,29.37
2018-06-11T12:52:25.086Z,29.17
2018-06-11T12:53:25.663Z,28.91
2018-06-11T12:54:26.235Z,28.82
2018-06-11T12:55:26.804Z,28.91
2018-06-11T12:56:27.382Z,29.00
2018-06-11T12:57:27.954Z,28.63
2018-06-11T12:58:28.528Z,28.29
2018-06-11T12:59:29.103Z,28.57
2018-06-11T13:00:29.666Z,28.25
2018-06-11T13:01:30.231Z,28.33